NO-0051 weather

Kristiansand Heliport, Hospital
Kristiansand, Vest-Agder, Norway

Public forecast

Using degrees Celsius for public forecast. Weather courtesy of forecast.io.

Closest aviation weather report (METAR) to Kristiansand Heliport, Hospital

Closest report is Kristiansand Airport, 4.1 nm (7.5 km) NE. Retrieved 2019/10/17 11:20 UTC (31 minutes ago):

ENCN 171120Z 09013KT 050V110 4000 -DZRA BR FEW002 BKN006 11/11 Q1004

Closest aviation forecast (TAF) to Kristiansand Heliport, Hospital

Forecast is more than 12 hours old.

Closest forecast is Kristiansand Airport, 4.1 nm (7.5 km) NE. Retrieved 2016/05/06 12:39 UTC (3 years ago):

TAF TAF ENCN 061100Z 0612/0712 14008KT 9999 FEW040